createdAt,value
2018-05-15T00:02:07.667Z,12.00
2018-05-15T00:04:36.385Z,11.90
2018-05-15T00:07:05.137Z,11.90
2018-05-15T00:09:34.016Z,11.70
2018-05-15T00:12:02.798Z,11.70
2018-05-15T00:14:31.621Z,11.70
2018-05-15T00:17:00.824Z,11.70
2018-05-15T00:19:29.876Z,11.60
2018-05-15T00:21:59.532Z,11.50
2018-05-15T00:24:28.720Z,11.50
2018-05-15T00:26:58.176Z,11.50
2018-05-15T00:29:26.903Z,11.50
2018-05-15T00:31:55.656Z,11.50
2018-05-15T00:34:24.234Z,11.60
2018-05-15T00:36:52.969Z,11.60
2018-05-15T00:39:21.675Z,11.70
2018-05-15T00:41:50.586Z,11.70
2018-05-15T00:44:19.427Z,11.70
2018-05-15T00:46:48.057Z,11.60
2018-05-15T00:49:16.694Z,11.50
2018-05-15T00:51:46.245Z,11.50
2018-05-15T00:54:15.783Z,11.50
2018-05-15T00:56:44.788Z,11.50
2018-05-15T00:59:13.518Z,11.60
2018-05-15T01:01:43.006Z,11.70
2018-05-15T01:04:11.709Z,11.70
2018-05-15T01:06:40.211Z,11.80
2018-05-15T01:09:08.755Z,11.80
2018-05-15T01:11:38.458Z,11.80
2018-05-15T01:14:07.045Z,11.90
2018-05-15T01:16:35.760Z,11.90
2018-05-15T01:19:04.451Z,11.90
2018-05-15T01:21:33.249Z,12.00
2018-05-15T01:24:03.627Z,12.00
2018-05-15T01:26:32.891Z,12.00
2018-05-15T01:29:01.846Z,12.00
2018-05-15T01:31:30.572Z,12.00
2018-05-15T01:34:00.121Z,12.00
2018-05-15T01:36:28.825Z,11.90
2018-05-15T01:38:58.344Z,11.90
2018-05-15T01:41:27.083Z,11.80
2018-05-15T01:43:55.836Z,11.70
2018-05-15T01:46:24.540Z,11.60
2018-05-15T01:48:53.285Z,11.60
2018-05-15T01:51:21.800Z,11.60
2018-05-15T01:53:50.652Z,11.60
2018-05-15T01:56:21.100Z,11.50
2018-05-15T01:58:51.089Z,11.50
2018-05-15T02:01:19.823Z,11.50
2018-05-15T02:03:48.595Z,11.40
2018-05-15T02:06:17.131Z,11.40
2018-05-15T02:08:47.337Z,11.40
2018-05-15T02:11:15.910Z,11.40
2018-05-15T02:13:44.644Z,11.30
2018-05-15T02:16:13.257Z,11.30
2018-05-15T02:18:42.794Z,11.20
2018-05-15T02:21:12.080Z,11.10
2018-05-15T02:23:43.607Z,11.10
2018-05-15T02:26:12.867Z,11.10
2018-05-15T02:28:41.815Z,11.20
2018-05-15T02:31:10.339Z,11.10
2018-05-15T02:33:38.905Z,11.10
2018-05-15T02:36:07.380Z,11.00
2018-05-15T02:38:36.917Z,10.90
2018-05-15T02:41:05.682Z,10.90
2018-05-15T02:43:34.349Z,10.90
2018-05-15T02:46:03.170Z,10.90
2018-05-15T02:48:32.030Z,10.90
2018-05-15T02:51:01.513Z,10.80
2018-05-15T02:53:30.157Z,10.80
2018-05-15T02:55:59.884Z,10.80
2018-05-15T02:58:28.963Z,10.80
2018-05-15T03:00:58.343Z,10.70
2018-05-15T03:03:27.780Z,10.70
2018-05-15T03:05:56.384Z,10.70
2018-05-15T03:08:24.973Z,10.70
2018-05-15T03:10:54.372Z,10.70
2018-05-15T03:13:23.080Z,10.70
2018-05-15T03:15:52.368Z,10.70
2018-05-15T03:18:21.061Z,10.70
2018-05-15T03:20:49.823Z,10.70
2018-05-15T03:23:18.430Z,10.70
2018-05-15T03:25:47.084Z,10.80
2018-05-15T03:28:16.454Z,10.80
2018-05-15T03:30:45.745Z,10.90
2018-05-15T03:33:14.343Z,10.90
2018-05-15T03:35:43.445Z,10.90
2018-05-15T03:38:12.165Z,10.80
2018-05-15T03:40:40.881Z,10.90
2018-05-15T03:43:09.531Z,10.80
2018-05-15T03:45:38.302Z,10.80
2018-05-15T03:48:06.761Z,10.90
2018-05-15T03:50:36.314Z,10.90
2018-05-15T03:53:05.137Z,10.90
2018-05-15T03:55:34.615Z,11.00
2018-05-15T03:58:04.383Z,10.90
2018-05-15T04:04:00.616Z,10.90
2018-05-15T04:06:47.421Z,10.90
2018-05-15T04:09:16.029Z,11.00
2018-05-15T04:11:44.742Z,10.90
2018-05-15T04:14:13.483Z,11.00
2018-05-15T04:16:42.221Z,11.10
2018-05-15T04:19:12.498Z,11.10
2018-05-15T04:21:41.921Z,11.00
2018-05-15T04:24:10.652Z,11.00
2018-05-15T04:26:39.447Z,11.00
2018-05-15T04:29:08.866Z,10.90
2018-05-15T04:31:38.366Z,11.00
2018-05-15T04:34:07.155Z,10.90
2018-05-15T04:36:36.691Z,10.80
2018-05-15T04:39:07.311Z,10.70
2018-05-15T04:41:36.061Z,10.70
2018-05-15T04:44:04.693Z,10.70
2018-05-15T04:46:33.405Z,10.70
2018-05-15T04:49:02.139Z,10.80
2018-05-15T04:51:30.813Z,10.70
2018-05-15T04:53:59.375Z,10.80
2018-05-15T04:56:28.240Z,10.80
2018-05-15T04:58:57.358Z,10.90
2018-05-15T05:01:27.145Z,11.10
2018-05-15T05:03:57.080Z,11.00
2018-05-15T05:06:26.651Z,10.90
2018-05-15T05:08:55.449Z,10.80
2018-05-15T05:11:24.260Z,10.80
2018-05-15T05:13:53.022Z,10.80
2018-05-15T05:16:22.492Z,10.70
2018-05-15T05:18:51.298Z,10.50
2018-05-15T05:21:20.221Z,10.40
2018-05-15T05:23:49.021Z,10.30
2018-05-15T05:26:17.553Z,10.20
2018-05-15T05:28:46.487Z,10.30
2018-05-15T05:31:15.856Z,10.30
2018-05-15T05:33:45.127Z,10.30
2018-05-15T05:36:13.872Z,10.30
2018-05-15T05:38:42.534Z,10.30
2018-05-15T05:41:11.369Z,10.20
2018-05-15T05:43:40.954Z,10.10
2018-05-15T05:46:09.716Z,10.10
2018-05-15T05:48:38.551Z,10.10
2018-05-15T05:51:07.270Z,10.00
2018-05-15T05:53:36.041Z,10.00
2018-05-15T05:56:04.800Z,10.00
2018-05-15T05:58:33.508Z,10.10
2018-05-15T06:01:02.628Z,10.20
2018-05-15T06:03:32.938Z,10.20
2018-05-15T06:06:02.303Z,10.20
2018-05-15T06:08:31.095Z,10.30
2018-05-15T06:10:59.631Z,10.30
2018-05-15T06:13:28.422Z,10.40
2018-05-15T06:15:58.190Z,10.50
2018-05-15T06:18:27.609Z,10.60
2018-05-15T06:20:56.678Z,10.70
2018-05-15T06:23:25.697Z,10.80
2018-05-15T06:25:54.512Z,10.80
2018-05-15T06:28:23.273Z,10.90
2018-05-15T06:30:53.428Z,11.00
2018-05-15T06:33:23.240Z,11.00
2018-05-15T06:35:53.272Z,11.70
2018-05-15T06:38:21.913Z,11.70
2018-05-15T06:40:51.240Z,12.00
2018-05-15T06:43:19.728Z,12.30
2018-05-15T06:45:50.030Z,12.80
2018-05-15T06:48:19.975Z,13.10
2018-05-15T06:50:50.458Z,13.70
2018-05-15T06:53:19.293Z,14.10
2018-05-15T06:55:47.824Z,14.20
2018-05-15T06:58:16.581Z,13.90
2018-05-15T07:00:46.311Z,14.00
2018-05-15T07:03:16.884Z,13.70
2018-05-15T07:05:46.625Z,13.70
2018-05-15T07:08:15.303Z,13.50
2018-05-15T07:10:44.606Z,13.70
2018-05-15T07:13:14.190Z,14.00
2018-05-15T07:15:42.862Z,13.90
2018-05-15T07:18:11.478Z,14.10
2018-05-15T07:20:40.758Z,13.90
2018-05-15T07:23:09.489Z,13.90
2018-05-15T07:25:39.195Z,13.30
2018-05-15T07:28:08.875Z,13.10
2018-05-15T07:30:38.879Z,13.10
2018-05-15T07:33:09.257Z,12.70
2018-05-15T07:35:40.205Z,12.60
2018-05-15T07:38:08.898Z,12.60
2018-05-15T07:40:37.709Z,12.70
2018-05-15T07:43:06.245Z,13.00
2018-05-15T07:45:34.887Z,13.60
2018-05-15T07:48:03.635Z,14.10
2018-05-15T07:50:32.391Z,14.70
2018-05-15T07:53:01.387Z,15.40
2018-05-15T07:55:30.262Z,15.30
2018-05-15T07:57:58.996Z,15.10
2018-05-15T08:00:28.187Z,14.90
2018-05-15T08:02:59.532Z,14.50
2018-05-15T08:05:29.797Z,14.30
2018-05-15T08:07:59.122Z,14.50
2018-05-15T08:10:29.407Z,14.50
2018-05-15T08:12:58.395Z,14.40
2018-05-15T08:15:28.658Z,14.00
2018-05-15T08:17:57.349Z,13.90
2018-05-15T08:20:26.135Z,13.70
2018-05-15T08:22:54.955Z,13.40
2018-05-15T08:25:24.634Z,13.10
2018-05-15T08:27:53.413Z,12.90
2018-05-15T08:30:22.613Z,12.80
2018-05-15T08:32:51.962Z,12.60
2018-05-15T08:35:20.972Z,12.60
2018-05-15T08:37:49.557Z,12.50
2018-05-15T08:40:18.228Z,12.40
2018-05-15T08:42:47.624Z,11.90
2018-05-15T08:45:16.412Z,11.90
2018-05-15T08:47:45.072Z,11.60
2018-05-15T08:50:13.884Z,11.50
2018-05-15T08:52:43.576Z,11.60
2018-05-15T08:55:12.133Z,11.60
2018-05-15T08:57:41.706Z,11.80
2018-05-15T09:00:10.351Z,11.80
2018-05-15T09:02:40.226Z,11.80
2018-05-15T09:05:09.800Z,11.80
2018-05-15T09:07:39.003Z,11.80
2018-05-15T09:10:07.559Z,11.80
2018-05-15T09:12:36.970Z,11.80
2018-05-15T09:15:05.558Z,11.80
2018-05-15T09:17:34.078Z,11.80
2018-05-15T09:20:03.649Z,11.70
2018-05-15T09:22:32.259Z,11.70
2018-05-15T09:25:00.968Z,11.40
2018-05-15T09:27:29.758Z,11.10
2018-05-15T09:29:58.487Z,11.00
2018-05-15T09:32:27.123Z,10.90
2018-05-15T09:34:56.646Z,10.80
2018-05-15T09:37:26.752Z,10.90
2018-05-15T09:39:55.863Z,10.80
2018-05-15T09:42:24.970Z,10.90
2018-05-15T09:44:53.636Z,10.80
2018-05-15T09:47:23.081Z,10.90
2018-05-15T09:49:53.719Z,10.90
2018-05-15T09:52:23.329Z,10.90
2018-05-15T09:54:52.295Z,10.90
2018-05-15T09:57:21.358Z,11.00
2018-05-15T09:59:50.155Z,11.00
2018-05-15T10:02:18.731Z,10.90
2018-05-15T10:04:47.301Z,10.90
2018-05-15T10:07:17.355Z,10.90
2018-05-15T10:09:46.470Z,10.90
2018-05-15T10:12:15.749Z,11.00
2018-05-15T10:14:44.378Z,11.20
2018-05-15T10:17:13.747Z,11.30
2018-05-15T10:19:42.408Z,11.30
2018-05-15T10:22:11.707Z,11.40
2018-05-15T10:24:40.328Z,11.30
2018-05-15T10:27:09.898Z,11.30
2018-05-15T10:29:38.526Z,11.30
2018-05-15T10:32:07.185Z,11.20
2018-05-15T10:34:36.800Z,11.20
2018-05-15T10:37:05.493Z,11.20
2018-05-15T10:39:34.531Z,11.20
2018-05-15T10:42:05.470Z,11.10
2018-05-15T10:44:34.859Z,11.10
2018-05-15T10:47:03.478Z,11.10
2018-05-15T10:49:32.036Z,11.00
2018-05-15T10:52:01.409Z,10.90
2018-05-15T10:54:30.242Z,10.90
2018-05-15T10:56:59.548Z,10.80
2018-05-15T10:59:28.403Z,10.80
2018-05-15T11:01:57.803Z,10.90
2018-05-15T11:04:26.353Z,10.90
2018-05-15T11:06:55.008Z,11.00
2018-05-15T11:09:24.602Z,11.10
2018-05-15T11:11:53.924Z,11.10
2018-05-15T11:14:22.974Z,11.20
2018-05-15T11:16:51.658Z,11.20
2018-05-15T11:19:38.342Z,11.20
2018-05-15T11:22:24.903Z,11.20
2018-05-15T11:24:54.326Z,11.30
2018-05-15T11:27:23.674Z,11.50
2018-05-15T11:29:52.363Z,11.50
2018-05-15T11:32:21.596Z,11.80
2018-05-15T11:34:51.176Z,11.90
2018-05-15T11:37:19.850Z,11.90
2018-05-15T11:39:48.486Z,12.00
2018-05-15T11:42:17.464Z,12.10
2018-05-15T11:44:46.698Z,12.30
2018-05-15T11:47:15.785Z,12.70
2018-05-15T11:49:45.035Z,13.00
2018-05-15T11:52:14.098Z,13.50
2018-05-15T11:54:42.604Z,13.50
2018-05-15T11:57:11.351Z,13.50
2018-05-15T11:59:39.943Z,13.60
2018-05-15T12:02:08.632Z,13.50
2018-05-15T12:04:38.083Z,13.40
2018-05-15T12:07:06.794Z,13.40
2018-05-15T12:09:35.443Z,13.40
2018-05-15T12:12:04.070Z,13.00
2018-05-15T12:14:33.660Z,12.60
2018-05-15T12:17:02.937Z,12.60
2018-05-15T12:19:32.140Z,12.50
2018-05-15T12:22:02.070Z,12.30
2018-05-15T12:24:31.639Z,12.30
2018-05-15T12:27:00.253Z,12.30
2018-05-15T12:29:29.168Z,12.60
2018-05-15T12:31:58.454Z,12.90
2018-05-15T12:34:29.564Z,13.00
2018-05-15T12:36:58.205Z,13.00
2018-05-15T12:39:26.830Z,13.00
2018-05-15T12:41:55.774Z,12.90
2018-05-15T12:44:25.298Z,13.20
2018-05-15T12:46:54.522Z,13.50
2018-05-15T12:49:25.335Z,13.40
2018-05-15T12:51:54.015Z,13.40
2018-05-15T12:54:22.654Z,13.70
2018-05-15T12:56:52.765Z,14.90
2018-05-15T12:59:21.439Z,14.90
2018-05-15T13:01:50.138Z,14.70
2018-05-15T13:04:19.562Z,14.60
2018-05-15T13:06:48.195Z,14.50
2018-05-15T13:09:17.256Z,15.00
2018-05-15T13:11:46.681Z,15.40
2018-05-15T13:14:16.629Z,15.20
2018-05-15T13:16:45.481Z,15.20
2018-05-15T13:19:14.476Z,14.90
2018-05-15T13:21:43.051Z,14.40
2018-05-15T13:24:12.138Z,13.80
2018-05-15T13:26:41.928Z,12.90
2018-05-15T13:29:10.660Z,12.90
2018-05-15T13:31:39.458Z,12.50
2018-05-15T13:34:08.472Z,12.20
2018-05-15T13:36:37.287Z,12.00
2018-05-15T13:39:07.121Z,11.90
2018-05-15T13:41:36.463Z,11.80
2018-05-15T13:44:10.641Z,11.80
2018-05-15T13:46:39.670Z,11.70
2018-05-15T13:49:09.948Z,11.70
2018-05-15T13:51:39.587Z,11.70
2018-05-15T13:54:09.066Z,11.90
2018-05-15T13:56:39.011Z,11.90
2018-05-15T13:59:08.201Z,11.90
2018-05-15T14:01:37.989Z,12.00
2018-05-15T14:04:08.198Z,12.10
2018-05-15T14:06:38.220Z,12.10
2018-05-15T14:09:09.944Z,12.20
2018-05-15T14:11:39.136Z,12.20
2018-05-15T14:14:07.931Z,12.30
2018-05-15T14:16:36.455Z,12.50
2018-05-15T14:19:05.313Z,12.50
2018-05-15T14:21:34.383Z,12.60
2018-05-15T14:24:05.021Z,12.70
2018-05-15T14:26:34.391Z,12.80
2018-05-15T14:29:04.305Z,13.00
2018-05-15T14:31:33.649Z,13.00
2018-05-15T14:34:03.182Z,13.10
2018-05-15T14:36:33.471Z,13.20
2018-05-15T14:39:03.903Z,13.20
2018-05-15T14:41:52.397Z,13.20
2018-05-15T14:44:22.216Z,13.00
2018-05-15T14:46:50.909Z,13.00
2018-05-15T14:49:20.122Z,13.00
2018-05-15T14:51:49.594Z,13.10
2018-05-15T14:54:21.186Z,13.20
2018-05-15T14:56:50.100Z,13.40
2018-05-15T14:59:19.537Z,13.50
2018-05-15T15:01:48.361Z,13.50
2018-05-15T15:04:17.626Z,13.70
2018-05-15T15:06:46.304Z,13.70
2018-05-15T15:09:15.842Z,13.80
2018-05-15T15:11:44.533Z,13.70
2018-05-15T15:14:16.921Z,13.90
2018-05-15T15:16:47.504Z,14.00
2018-05-15T15:19:17.279Z,14.10
2018-05-15T15:21:47.088Z,14.40
2018-05-15T15:24:15.894Z,14.60
2018-05-15T15:26:49.672Z,14.50
2018-05-15T15:29:23.304Z,14.50
2018-05-15T15:31:54.102Z,14.50
2018-05-15T15:34:22.968Z,14.30
2018-05-15T15:36:52.793Z,14.20
2018-05-15T15:39:23.124Z,14.30
2018-05-15T15:41:52.753Z,14.10
2018-05-15T15:44:21.473Z,14.10
2018-05-15T15:46:51.102Z,14.20
2018-05-15T15:49:20.233Z,14.10
2018-05-15T15:51:50.434Z,14.20
2018-05-15T15:54:19.308Z,14.30
2018-05-15T15:56:50.935Z,14.40
2018-05-15T15:59:20.058Z,14.40
2018-05-15T16:01:48.806Z,14.50
2018-05-15T16:04:19.815Z,14.40
2018-05-15T16:06:50.513Z,14.40
2018-05-15T16:09:19.245Z,14.40
2018-05-15T16:11:48.630Z,14.20
2018-05-15T16:14:17.202Z,14.20
2018-05-15T16:16:46.739Z,14.10
2018-05-15T16:19:15.399Z,14.20
2018-05-15T16:21:44.974Z,14.40
2018-05-15T16:24:15.458Z,14.40
2018-05-15T16:26:46.455Z,14.20
2018-05-15T16:29:16.232Z,14.10
2018-05-15T16:31:45.562Z,14.10
2018-05-15T16:34:15.303Z,14.00
2018-05-15T16:36:44.451Z,13.90
2018-05-15T16:39:13.379Z,13.90
2018-05-15T16:41:43.049Z,14.00
2018-05-15T16:44:13.086Z,13.90
2018-05-15T16:46:42.189Z,13.90
2018-05-15T16:49:13.929Z,13.80
2018-05-15T16:51:42.879Z,13.80
2018-05-15T16:54:13.129Z,13.80
2018-05-15T16:56:43.591Z,13.70
2018-05-15T16:59:14.134Z,13.60
2018-05-15T17:01:43.367Z,13.60
2018-05-15T17:04:13.163Z,13.40
2018-05-15T17:06:42.436Z,13.40
2018-05-15T17:09:15.301Z,13.20
2018-05-15T17:11:44.776Z,13.20
2018-05-15T17:14:14.215Z,13.20
2018-05-15T17:16:45.700Z,13.10
2018-05-15T17:19:15.945Z,13.10
2018-05-15T17:21:45.727Z,13.00
2018-05-15T17:24:16.921Z,13.10
2018-05-15T17:26:46.543Z,13.20
2018-05-15T17:29:16.044Z,13.20
2018-05-15T17:31:45.529Z,13.10
2018-05-15T17:34:19.093Z,13.10
2018-05-15T17:36:48.693Z,13.00
2018-05-15T17:39:22.276Z,12.90
2018-05-15T17:41:53.974Z,12.70
2018-05-15T17:44:34.711Z,12.70
2018-05-15T17:47:05.360Z,12.50
2018-05-15T17:49:41.045Z,12.50
2018-05-15T17:52:11.417Z,12.50
2018-05-15T17:54:41.692Z,12.40
2018-05-15T17:57:10.958Z,12.40
2018-05-15T17:59:43.127Z,12.40
2018-05-15T18:02:13.069Z,12.40
2018-05-15T18:04:42.477Z,12.40
2018-05-15T18:07:11.679Z,12.40
2018-05-15T18:09:41.718Z,12.30
2018-05-15T18:12:12.094Z,12.30
2018-05-15T18:14:41.666Z,12.20
2018-05-15T18:17:11.743Z,12.20
2018-05-15T18:19:42.868Z,12.10
2018-05-15T18:22:12.006Z,12.00
2018-05-15T18:24:41.751Z,12.00
2018-05-15T18:27:11.253Z,12.00
2018-05-15T18:29:40.749Z,11.90
2018-05-15T18:32:09.820Z,11.80
2018-05-15T18:34:39.078Z,11.80
2018-05-15T18:37:09.089Z,11.70
2018-05-15T18:39:39.198Z,11.60
2018-05-15T18:42:09.997Z,11.40
2018-05-15T18:44:39.665Z,11.40
2018-05-15T18:47:09.776Z,11.30
2018-05-15T18:49:42.206Z,11.30
2018-05-15T18:52:13.570Z,11.40
2018-05-15T18:54:43.127Z,11.40
2018-05-15T18:57:13.856Z,11.40
2018-05-15T18:59:43.620Z,11.40
2018-05-15T19:02:12.414Z,11.40
2018-05-15T19:04:43.675Z,11.40
2018-05-15T19:07:15.542Z,11.30
2018-05-15T19:09:45.329Z,11.30
2018-05-15T19:12:18.077Z,11.20
2018-05-15T19:14:47.462Z,11.10
2018-05-15T19:17:16.760Z,11.10
2018-05-15T19:19:47.013Z,11.10
2018-05-15T19:22:16.991Z,11.10
2018-05-15T19:24:46.588Z,11.10
2018-05-15T19:27:17.490Z,11.00
2018-05-15T19:29:48.185Z,11.00
2018-05-15T19:32:19.556Z,10.90
2018-05-15T19:34:54.158Z,10.90
2018-05-15T19:37:24.001Z,10.90
2018-05-15T19:39:57.965Z,10.90
2018-05-15T19:42:29.207Z,10.90
2018-05-15T19:45:01.872Z,10.80
2018-05-15T19:47:33.145Z,10.80
2018-05-15T19:50:02.517Z,10.80
2018-05-15T19:52:32.327Z,10.90
2018-05-15T19:55:01.301Z,10.80
2018-05-15T19:57:35.150Z,10.90
2018-05-15T20:00:04.035Z,10.90
2018-05-15T20:02:33.649Z,10.90
2018-05-15T20:05:07.660Z,10.90
2018-05-15T20:07:37.536Z,10.90
2018-05-15T20:10:06.655Z,10.90
2018-05-15T20:12:35.961Z,10.90
2018-05-15T20:15:04.828Z,10.90
2018-05-15T20:17:33.788Z,11.00
2018-05-15T20:20:02.804Z,11.00
2018-05-15T20:22:32.338Z,11.00
2018-05-15T20:25:01.277Z,11.00
2018-05-15T20:27:32.429Z,11.10
2018-05-15T20:30:05.032Z,11.10
2018-05-15T20:32:35.345Z,11.10
2018-05-15T20:35:06.543Z,11.00
2018-05-15T20:37:35.867Z,10.90
2018-05-15T20:40:04.840Z,10.90
2018-05-15T20:42:34.069Z,10.90
2018-05-15T20:45:03.500Z,10.90
2018-05-15T20:47:33.432Z,10.80
2018-05-15T20:50:02.567Z,10.80
2018-05-15T20:52:34.595Z,10.80
2018-05-15T20:55:05.707Z,10.80
2018-05-15T20:57:36.349Z,10.80
2018-05-15T21:00:06.581Z,10.80
2018-05-15T21:02:35.759Z,10.80
2018-05-15T21:05:06.821Z,10.70
2018-05-15T21:07:36.548Z,10.70
2018-05-15T21:10:06.207Z,10.70
2018-05-15T21:12:37.380Z,10.70
2018-05-15T21:15:06.957Z,10.70
2018-05-15T21:17:36.352Z,10.70
2018-05-15T21:20:07.822Z,10.60
2018-05-15T21:22:37.013Z,10.60
2018-05-15T21:25:10.669Z,10.60
2018-05-15T21:27:40.665Z,10.50
2018-05-15T21:30:13.669Z,10.50
2018-05-15T21:32:43.117Z,10.50
2018-05-15T21:35:13.212Z,10.50
2018-05-15T21:37:43.377Z,10.40
2018-05-15T21:40:17.292Z,10.40
2018-05-15T21:42:46.211Z,10.30
2018-05-15T21:45:15.039Z,10.30
2018-05-15T21:47:43.811Z,10.30
2018-05-15T21:50:12.929Z,10.30
2018-05-15T21:52:43.522Z,10.30
2018-05-15T21:55:12.383Z,10.30
2018-05-15T21:57:42.524Z,10.40
2018-05-15T22:00:12.168Z,10.40
2018-05-15T22:02:40.945Z,10.40
2018-05-15T22:05:10.961Z,10.50
2018-05-15T22:07:41.616Z,10.40
2018-05-15T22:10:10.303Z,10.40
2018-05-15T22:12:57.096Z,10.50
2018-05-15T22:15:44.198Z,10.50
2018-05-15T22:18:31.427Z,10.40
2018-05-15T22:21:17.921Z,10.40
2018-05-15T22:23:45.815Z,10.40
2018-05-15T22:26:14.636Z,10.40
2018-05-15T22:28:43.948Z,10.40
2018-05-15T22:31:12.840Z,10.40
2018-05-15T22:33:42.496Z,10.30
2018-05-15T22:36:11.815Z,10.30
2018-05-15T22:38:42.876Z,10.30
2018-05-15T22:41:12.301Z,10.30
2018-05-15T22:43:41.885Z,10.30
2018-05-15T22:46:11.151Z,10.20
2018-05-15T22:48:40.177Z,10.20
2018-05-15T22:51:09.141Z,10.20
2018-05-15T22:53:38.667Z,10.10
2018-05-15T22:56:08.235Z,10.20
2018-05-15T22:58:37.305Z,10.10
2018-05-15T23:01:06.711Z,10.20
2018-05-15T23:03:37.253Z,10.30
2018-05-15T23:06:06.765Z,10.30
2018-05-15T23:08:36.436Z,10.40
2018-05-15T23:11:07.036Z,10.40
2018-05-15T23:13:36.464Z,10.40
2018-05-15T23:16:06.010Z,10.40
2018-05-15T23:18:35.094Z,10.40
2018-05-15T23:21:03.753Z,10.40
2018-05-15T23:23:32.824Z,10.40
2018-05-15T23:26:01.394Z,10.30
2018-05-15T23:28:31.140Z,10.20
2018-05-15T23:31:00.576Z,10.20
2018-05-15T23:33:30.569Z,10.20
2018-05-15T23:36:00.260Z,10.20
2018-05-15T23:38:30.434Z,10.20
2018-05-15T23:40:59.758Z,10.20
2018-05-15T23:43:28.599Z,10.20
2018-05-15T23:45:57.528Z,10.20
2018-05-15T23:48:26.851Z,10.30
2018-05-15T23:50:55.684Z,10.30
2018-05-15T23:53:24.481Z,10.40
2018-05-15T23:55:53.020Z,10.40
2018-05-15T23:58:21.705Z,10.40
